sensor_id;sensor_type;location;lat;lon;timestamp;temperature;humidity
42479;DHT22;28110;47.080;9.476;2024-03-29T00:00:25;8.20;99.90
42479;DHT22;28110;47.080;9.476;2024-03-29T00:02:50;8.20;99.90
42479;DHT22;28110;47.080;9.476;2024-03-29T00:05:16;8.30;99.90
42479;DHT22;28110;47.080;9.476;2024-03-29T00:07:41;8.30;99.90
42479;DHT22;28110;47.080;9.476;2024-03-29T00:10:07;8.30;99.90
42479;DHT22;28110;47.080;9.476;2024-03-29T00:12:32;8.30;99.90
42479;DHT22;28110;47.080;9.476;2024-03-29T00:14:58;8.30;99.90
42479;DHT22;28110;47.080;9.476;2024-03-29T00:17:24;8.30;99.90
42479;DHT22;28110;47.080;9.476;2024-03-29T00:19:49;8.30;99.90
42479;DHT22;28110;47.080;9.476;2024-03-29T00:22:15;8.30;99.90
42479;DHT22;28110;47.080;9.476;2024-03-29T00:24:40;8.40;99.90
42479;DHT22;28110;47.080;9.476;2024-03-29T00:27:06;8.30;99.90
42479;DHT22;28110;47.080;9.476;2024-03-29T00:29:32;8.50;99.90
42479;DHT22;28110;47.080;9.476;2024-03-29T00:31:58;8.50;99.90
42479;DHT22;28110;47.080;9.476;2024-03-29T00:34:23;8.50;99.90
42479;DHT22;28110;47.080;9.476;2024-03-29T00:36:49;8.60;99.90
42479;DHT22;28110;47.080;9.476;2024-03-29T00:39:14;8.50;99.90
42479;DHT22;28110;47.080;9.476;2024-03-29T00:41:40;8.50;99.90
42479;DHT22;28110;47.080;9.476;2024-03-29T00:44:05;8.50;99.90
42479;DHT22;28110;47.080;9.476;2024-03-29T00:46:31;8.40;99.90
42479;DHT22;28110;47.080;9.476;2024-03-29T00:48:56;8.50;99.90
42479;DHT22;28110;47.080;9.476;2024-03-29T00:51:22;8.70;99.90
42479;DHT22;28110;47.080;9.476;2024-03-29T00:53:47;8.80;99.90
42479;DHT22;28110;47.080;9.476;2024-03-29T00:56:14;8.90;99.90
42479;DHT22;28110;47.080;9.476;2024-03-29T00:58:40;9.10;99.90
42479;DHT22;28110;47.080;9.476;2024-03-29T01:01:05;9.10;99.90
42479;DHT22;28110;47.080;9.476;2024-03-29T01:03:31;9.00;99.90
42479;DHT22;28110;47.080;9.476;2024-03-29T01:05:57;8.90;99.90
42479;DHT22;28110;47.080;9.476;2024-03-29T01:08:22;8.80;99.90
42479;DHT22;28110;47.080;9.476;2024-03-29T01:10:49;8.80;99.90
42479;DHT22;28110;47.080;9.476;2024-03-29T01:13:14;9.00;99.90
42479;DHT22;28110;47.080;9.476;2024-03-29T01:15:40;9.10;99.90
42479;DHT22;28110;47.080;9.476;2024-03-29T01:18:05;9.00;99.90
42479;DHT22;28110;47.080;9.476;2024-03-29T01:20:31;8.90;99.90
42479;DHT22;28110;47.080;9.476;2024-03-29T01:22:56;9.10;99.90
42479;DHT22;28110;47.080;9.476;2024-03-29T01:25:22;9.10;99.90
42479;DHT22;28110;47.080;9.476;2024-03-29T01:27:49;9.20;99.90
42479;DHT22;28110;47.080;9.476;2024-03-29T01:30:15;9.40;99.90
42479;DHT22;28110;47.080;9.476;2024-03-29T01:32:40;9.40;99.90
42479;DHT22;28110;47.080;9.476;2024-03-29T01:35:06;9.50;99.90
42479;DHT22;28110;47.080;9.476;2024-03-29T01:37:32;9.50;99.90
42479;DHT22;28110;47.080;9.476;2024-03-29T01:39:57;9.50;99.90
42479;DHT22;28110;47.080;9.476;2024-03-29T01:42:24;9.60;99.30
42479;DHT22;28110;47.080;9.476;2024-03-29T01:44:49;9.60;99.90
42479;DHT22;28110;47.080;9.476;2024-03-29T01:47:16;9.50;99.90
42479;DHT22;28110;47.080;9.476;2024-03-29T01:49:44;9.40;99.90
42479;DHT22;28110;47.080;9.476;2024-03-29T01:52:11;9.60;99.80
42479;DHT22;28110;47.080;9.476;2024-03-29T01:54:37;9.50;99.90
42479;DHT22;28110;47.080;9.476;2024-03-29T01:57:03;9.40;99.90
42479;DHT22;28110;47.080;9.476;2024-03-29T01:59:29;9.40;99.60
42479;DHT22;28110;47.080;9.476;2024-03-29T02:01:56;9.70;98.90
42479;DHT22;28110;47.080;9.476;2024-03-29T02:04:23;9.70;99.90
42479;DHT22;28110;47.080;9.476;2024-03-29T02:06:48;9.90;98.90
42479;DHT22;28110;47.080;9.476;2024-03-29T02:09:14;9.80;99.90
42479;DHT22;28110;47.080;9.476;2024-03-29T02:11:40;9.60;99.90
42479;DHT22;28110;47.080;9.476;2024-03-29T02:14:05;9.50;99.50
42479;DHT22;28110;47.080;9.476;2024-03-29T02:16:34;9.70;97.70
42479;DHT22;28110;47.080;9.476;2024-03-29T02:18:59;10.00;96.20
42479;DHT22;28110;47.080;9.476;2024-03-29T02:21:25;10.30;95.40
42479;DHT22;28110;47.080;9.476;2024-03-29T02:24:04;10.50;95.50
42479;DHT22;28110;47.080;9.476;2024-03-29T02:26:30;10.70;94.90
42479;DHT22;28110;47.080;9.476;2024-03-29T02:28:58;10.60;95.20
42479;DHT22;28110;47.080;9.476;2024-03-29T02:31:24;10.80;92.40
42479;DHT22;28110;47.080;9.476;2024-03-29T02:33:49;10.90;92.00
42479;DHT22;28110;47.080;9.476;2024-03-29T02:36:15;11.10;91.80
42479;DHT22;28110;47.080;9.476;2024-03-29T02:38:40;11.10;92.40
42479;DHT22;28110;47.080;9.476;2024-03-29T02:41:06;11.20;90.50
42479;DHT22;28110;47.080;9.476;2024-03-29T02:43:31;11.20;90.90
42479;DHT22;28110;47.080;9.476;2024-03-29T02:45:57;11.20;90.80
42479;DHT22;28110;47.080;9.476;2024-03-29T02:48:22;11.40;88.50
42479;DHT22;28110;47.080;9.476;2024-03-29T02:50:48;11.40;90.10
42479;DHT22;28110;47.080;9.476;2024-03-29T02:53:13;11.40;90.10
42479;DHT22;28110;47.080;9.476;2024-03-29T02:55:41;11.50;85.50
42479;DHT22;28110;47.080;9.476;2024-03-29T02:58:06;11.60;85.50
42479;DHT22;28110;47.080;9.476;2024-03-29T03:00:33;11.80;84.30
42479;DHT22;28110;47.080;9.476;2024-03-29T03:02:58;11.90;83.70
42479;DHT22;28110;47.080;9.476;2024-03-29T03:05:24;11.80;87.60
42479;DHT22;28110;47.080;9.476;2024-03-29T03:07:49;11.60;88.40
42479;DHT22;28110;47.080;9.476;2024-03-29T03:10:33;11.50;85.10
42479;DHT22;28110;47.080;9.476;2024-03-29T03:13:17;11.60;85.50
42479;DHT22;28110;47.080;9.476;2024-03-29T03:15:43;11.70;84.60
42479;DHT22;28110;47.080;9.476;2024-03-29T03:18:08;11.80;84.30
42479;DHT22;28110;47.080;9.476;2024-03-29T03:20:34;11.70;86.30
42479;DHT22;28110;47.080;9.476;2024-03-29T03:23:00;11.60;83.80
42479;DHT22;28110;47.080;9.476;2024-03-29T03:25:27;11.90;81.90
42479;DHT22;28110;47.080;9.476;2024-03-29T03:27:52;12.10;79.60
42479;DHT22;28110;47.080;9.476;2024-03-29T03:30:18;12.00;82.40
42479;DHT22;28110;47.080;9.476;2024-03-29T03:32:44;12.20;78.20
42479;DHT22;28110;47.080;9.476;2024-03-29T03:35:09;12.10;81.60
42479;DHT22;28110;47.080;9.476;2024-03-29T03:37:35;12.20;81.20
42479;DHT22;28110;47.080;9.476;2024-03-29T03:40:00;12.20;79.10
42479;DHT22;28110;47.080;9.476;2024-03-29T03:42:26;12.30;81.30
42479;DHT22;28110;47.080;9.476;2024-03-29T03:44:51;12.10;81.80
42479;DHT22;28110;47.080;9.476;2024-03-29T03:47:17;12.20;78.00
42479;DHT22;28110;47.080;9.476;2024-03-29T03:49:42;12.30;78.40
42479;DHT22;28110;47.080;9.476;2024-03-29T03:52:08;12.40;77.40
42479;DHT22;28110;47.080;9.476;2024-03-29T03:54:33;12.40;76.40
42479;DHT22;28110;47.080;9.476;2024-03-29T03:57:00;12.50;76.30
42479;DHT22;28110;47.080;9.476;2024-03-29T03:59:25;12.50;77.40
42479;DHT22;28110;47.080;9.476;2024-03-29T04:01:51;12.50;78.90
42479;DHT22;28110;47.080;9.476;2024-03-29T04:04:17;12.40;76.50
42479;DHT22;28110;47.080;9.476;2024-03-29T04:06:43;12.50;76.30
42479;DHT22;28110;47.080;9.476;2024-03-29T04:09:09;12.60;75.70
42479;DHT22;28110;47.080;9.476;2024-03-29T04:11:35;12.60;75.80
42479;DHT22;28110;47.080;9.476;2024-03-29T04:14:00;12.60;75.70
42479;DHT22;28110;47.080;9.476;2024-03-29T04:16:26;12.70;75.90
42479;DHT22;28110;47.080;9.476;2024-03-29T04:18:52;12.70;74.60
42479;DHT22;28110;47.080;9.476;2024-03-29T04:21:17;12.60;75.70
42479;DHT22;28110;47.080;9.476;2024-03-29T04:23:43;12.70;75.60
42479;DHT22;28110;47.080;9.476;2024-03-29T04:26:08;12.70;75.50
42479;DHT22;28110;47.080;9.476;2024-03-29T04:28:34;12.70;76.00
42479;DHT22;28110;47.080;9.476;2024-03-29T04:31:00;12.70;76.60
42479;DHT22;28110;47.080;9.476;2024-03-29T04:33:26;12.70;75.50
42479;DHT22;28110;47.080;9.476;2024-03-29T04:36:00;12.80;75.60
42479;DHT22;28110;47.080;9.476;2024-03-29T04:38:26;12.70;75.10
42479;DHT22;28110;47.080;9.476;2024-03-29T04:40:53;12.80;75.50
42479;DHT22;28110;47.080;9.476;2024-03-29T04:43:21;12.80;76.50
42479;DHT22;28110;47.080;9.476;2024-03-29T04:45:47;12.80;75.80
42479;DHT22;28110;47.080;9.476;2024-03-29T04:48:13;12.80;76.60
42479;DHT22;28110;47.080;9.476;2024-03-29T04:50:38;12.70;76.20
42479;DHT22;28110;47.080;9.476;2024-03-29T04:53:04;12.80;76.60
42479;DHT22;28110;47.080;9.476;2024-03-29T04:55:30;12.80;76.50
42479;DHT22;28110;47.080;9.476;2024-03-29T04:57:55;12.80;76.10
42479;DHT22;28110;47.080;9.476;2024-03-29T05:00:21;12.80;76.90
42479;DHT22;28110;47.080;9.476;2024-03-29T05:02:47;12.80;76.80
42479;DHT22;28110;47.080;9.476;2024-03-29T05:05:12;12.80;77.40
42479;DHT22;28110;47.080;9.476;2024-03-29T05:07:38;12.80;77.50
42479;DHT22;28110;47.080;9.476;2024-03-29T05:10:03;12.80;78.10
42479;DHT22;28110;47.080;9.476;2024-03-29T05:12:32;12.70;78.70
42479;DHT22;28110;47.080;9.476;2024-03-29T05:14:57;12.70;79.50
42479;DHT22;28110;47.080;9.476;2024-03-29T05:17:23;12.70;79.10
42479;DHT22;28110;47.080;9.476;2024-03-29T05:19:52;12.80;78.90
42479;DHT22;28110;47.080;9.476;2024-03-29T05:22:18;12.80;79.80
42479;DHT22;28110;47.080;9.476;2024-03-29T05:24:43;12.80;79.90
42479;DHT22;28110;47.080;9.476;2024-03-29T05:27:09;12.80;80.70
42479;DHT22;28110;47.080;9.476;2024-03-29T05:29:34;12.80;80.60
42479;DHT22;28110;47.080;9.476;2024-03-29T05:32:00;12.80;81.40
42479;DHT22;28110;47.080;9.476;2024-03-29T05:34:25;12.80;80.80
42479;DHT22;28110;47.080;9.476;2024-03-29T05:36:51;12.80;81.10
42479;DHT22;28110;47.080;9.476;2024-03-29T05:39:16;12.80;81.50
42479;DHT22;28110;47.080;9.476;2024-03-29T05:41:44;13.00;81.50
42479;DHT22;28110;47.080;9.476;2024-03-29T05:44:09;13.00;81.70
42479;DHT22;28110;47.080;9.476;2024-03-29T05:46:35;13.10;82.40
42479;DHT22;28110;47.080;9.476;2024-03-29T05:49:00;13.10;82.40
42479;DHT22;28110;47.080;9.476;2024-03-29T05:51:26;13.20;81.30
42479;DHT22;28110;47.080;9.476;2024-03-29T05:53:51;13.20;82.20
42479;DHT22;28110;47.080;9.476;2024-03-29T05:56:17;13.20;82.60
42479;DHT22;28110;47.080;9.476;2024-03-29T05:58:42;13.20;82.10
42479;DHT22;28110;47.080;9.476;2024-03-29T06:01:08;13.30;83.20
42479;DHT22;28110;47.080;9.476;2024-03-29T06:03:34;13.30;83.00
42479;DHT22;28110;47.080;9.476;2024-03-29T06:05:59;13.30;82.80
42479;DHT22;28110;47.080;9.476;2024-03-29T06:08:25;13.20;83.30
42479;DHT22;28110;47.080;9.476;2024-03-29T06:10:52;13.20;83.40
42479;DHT22;28110;47.080;9.476;2024-03-29T06:13:18;13.30;82.70
42479;DHT22;28110;47.080;9.476;2024-03-29T06:15:55;13.30;83.00
42479;DHT22;28110;47.080;9.476;2024-03-29T06:18:39;13.30;82.80
42479;DHT22;28110;47.080;9.476;2024-03-29T06:21:05;13.20;83.00
42479;DHT22;28110;47.080;9.476;2024-03-29T06:23:30;13.20;83.70
42479;DHT22;28110;47.080;9.476;2024-03-29T06:25:56;13.20;83.10
42479;DHT22;28110;47.080;9.476;2024-03-29T06:28:21;13.30;83.90
42479;DHT22;28110;47.080;9.476;2024-03-29T06:30:47;13.30;83.40
42479;DHT22;28110;47.080;9.476;2024-03-29T06:33:12;13.30;83.10
42479;DHT22;28110;47.080;9.476;2024-03-29T06:35:38;13.40;83.50
42479;DHT22;28110;47.080;9.476;2024-03-29T06:38:04;13.30;83.70
42479;DHT22;28110;47.080;9.476;2024-03-29T06:40:29;13.40;83.80
42479;DHT22;28110;47.080;9.476;2024-03-29T06:42:55;13.40;83.70
42479;DHT22;28110;47.080;9.476;2024-03-29T06:45:23;13.40;83.40
42479;DHT22;28110;47.080;9.476;2024-03-29T06:47:49;13.50;84.10
42479;DHT22;28110;47.080;9.476;2024-03-29T06:50:14;13.50;84.40
42479;DHT22;28110;47.080;9.476;2024-03-29T06:52:40;13.40;84.80
42479;DHT22;28110;47.080;9.476;2024-03-29T06:55:05;13.50;84.80
42479;DHT22;28110;47.080;9.476;2024-03-29T06:57:31;13.50;84.10
42479;DHT22;28110;47.080;9.476;2024-03-29T06:59:57;13.60;84.90
42479;DHT22;28110;47.080;9.476;2024-03-29T07:02:23;13.70;83.90
42479;DHT22;28110;47.080;9.476;2024-03-29T07:04:49;13.70;84.10
42479;DHT22;28110;47.080;9.476;2024-03-29T07:07:14;13.70;85.20
42479;DHT22;28110;47.080;9.476;2024-03-29T07:09:40;13.60;84.90
42479;DHT22;28110;47.080;9.476;2024-03-29T07:12:06;13.50;85.10
42479;DHT22;28110;47.080;9.476;2024-03-29T07:14:31;13.50;85.40
42479;DHT22;28110;47.080;9.476;2024-03-29T07:16:58;13.60;86.40
42479;DHT22;28110;47.080;9.476;2024-03-29T07:19:24;13.70;85.60
42479;DHT22;28110;47.080;9.476;2024-03-29T07:21:50;13.80;86.10
42479;DHT22;28110;47.080;9.476;2024-03-29T07:24:18;13.90;86.40
42479;DHT22;28110;47.080;9.476;2024-03-29T07:26:44;14.00;84.80
42479;DHT22;28110;47.080;9.476;2024-03-29T07:29:10;14.10;85.40
42479;DHT22;28110;47.080;9.476;2024-03-29T07:31:35;14.20;84.60
42479;DHT22;28110;47.080;9.476;2024-03-29T07:34:01;14.20;86.10
42479;DHT22;28110;47.080;9.476;2024-03-29T07:36:27;14.30;85.40
42479;DHT22;28110;47.080;9.476;2024-03-29T07:38:57;14.30;86.80
42479;DHT22;28110;47.080;9.476;2024-03-29T07:41:24;14.30;85.20
42479;DHT22;28110;47.080;9.476;2024-03-29T07:43:54;14.50;85.60
42479;DHT22;28110;47.080;9.476;2024-03-29T07:46:22;14.50;85.30
42479;DHT22;28110;47.080;9.476;2024-03-29T07:48:49;14.60;85.50
42479;DHT22;28110;47.080;9.476;2024-03-29T07:51:14;14.80;85.20
42479;DHT22;28110;47.080;9.476;2024-03-29T07:53:40;14.90;84.50
42479;DHT22;28110;47.080;9.476;2024-03-29T07:56:14;15.00;85.10
42479;DHT22;28110;47.080;9.476;2024-03-29T07:58:40;15.10;84.30
42479;DHT22;28110;47.080;9.476;2024-03-29T08:01:06;15.10;84.60
42479;DHT22;28110;47.080;9.476;2024-03-29T08:03:32;15.20;84.00
42479;DHT22;28110;47.080;9.476;2024-03-29T08:06:00;15.20;84.40
42479;DHT22;28110;47.080;9.476;2024-03-29T08:08:27;15.30;83.40
42479;DHT22;28110;47.080;9.476;2024-03-29T08:10:53;15.40;84.70
42479;DHT22;28110;47.080;9.476;2024-03-29T08:13:20;15.40;82.40
42479;DHT22;28110;47.080;9.476;2024-03-29T08:15:47;15.50;83.10
42479;DHT22;28110;47.080;9.476;2024-03-29T08:18:13;15.50;82.70
42479;DHT22;28110;47.080;9.476;2024-03-29T08:20:38;15.60;82.10
42479;DHT22;28110;47.080;9.476;2024-03-29T08:23:04;15.70;83.10
42479;DHT22;28110;47.080;9.476;2024-03-29T08:25:29;15.70;83.70
42479;DHT22;28110;47.080;9.476;2024-03-29T08:27:55;15.70;83.40
42479;DHT22;28110;47.080;9.476;2024-03-29T08:30:27;15.80;83.10
42479;DHT22;28110;47.080;9.476;2024-03-29T08:32:57;15.90;83.20
42479;DHT22;28110;47.080;9.476;2024-03-29T08:35:25;16.00;82.10
42479;DHT22;28110;47.080;9.476;2024-03-29T08:37:50;16.00;83.30
42479;DHT22;28110;47.080;9.476;2024-03-29T08:40:16;16.00;83.80
42479;DHT22;28110;47.080;9.476;2024-03-29T08:42:41;16.00;82.20
42479;DHT22;28110;47.080;9.476;2024-03-29T08:45:07;16.10;83.10
42479;DHT22;28110;47.080;9.476;2024-03-29T08:47:33;16.20;82.10
42479;DHT22;28110;47.080;9.476;2024-03-29T08:49:59;16.30;82.30
42479;DHT22;28110;47.080;9.476;2024-03-29T08:52:24;16.40;82.80
42479;DHT22;28110;47.080;9.476;2024-03-29T08:54:50;16.50;83.00
42479;DHT22;28110;47.080;9.476;2024-03-29T08:57:16;16.60;82.90
42479;DHT22;28110;47.080;9.476;2024-03-29T08:59:41;16.70;81.50
42479;DHT22;28110;47.080;9.476;2024-03-29T09:02:07;16.90;82.60
42479;DHT22;28110;47.080;9.476;2024-03-29T09:04:33;17.00;82.80
42479;DHT22;28110;47.080;9.476;2024-03-29T09:07:01;17.10;81.50
42479;DHT22;28110;47.080;9.476;2024-03-29T09:09:29;17.20;83.00
42479;DHT22;28110;47.080;9.476;2024-03-29T09:11:55;17.30;80.90
42479;DHT22;28110;47.080;9.476;2024-03-29T09:14:21;17.50;82.80
42479;DHT22;28110;47.080;9.476;2024-03-29T09:16:46;17.70;81.50
42479;DHT22;28110;47.080;9.476;2024-03-29T09:19:14;18.00;79.10
42479;DHT22;28110;47.080;9.476;2024-03-29T09:21:40;18.20;78.30
42479;DHT22;28110;47.080;9.476;2024-03-29T09:24:06;18.40;79.10
42479;DHT22;28110;47.080;9.476;2024-03-29T09:26:32;18.50;77.60
42479;DHT22;28110;47.080;9.476;2024-03-29T09:28:58;18.60;75.70
42479;DHT22;28110;47.080;9.476;2024-03-29T09:31:23;18.70;74.80
42479;DHT22;28110;47.080;9.476;2024-03-29T09:33:49;18.70;75.20
42479;DHT22;28110;47.080;9.476;2024-03-29T09:36:20;18.70;76.60
42479;DHT22;28110;47.080;9.476;2024-03-29T09:38:46;18.80;75.80
42479;DHT22;28110;47.080;9.476;2024-03-29T09:41:15;18.80;74.70
42479;DHT22;28110;47.080;9.476;2024-03-29T09:43:46;18.80;74.90
42479;DHT22;28110;47.080;9.476;2024-03-29T09:46:12;18.80;75.40
42479;DHT22;28110;47.080;9.476;2024-03-29T09:48:43;18.90;74.30
42479;DHT22;28110;47.080;9.476;2024-03-29T09:51:11;19.00;74.70
42479;DHT22;28110;47.080;9.476;2024-03-29T09:53:40;19.00;74.20
42479;DHT22;28110;47.080;9.476;2024-03-29T09:56:07;18.80;74.20
42479;DHT22;28110;47.080;9.476;2024-03-29T09:58:33;18.70;74.20
42479;DHT22;28110;47.080;9.476;2024-03-29T10:01:03;18.50;75.00
42479;DHT22;28110;47.080;9.476;2024-03-29T10:03:40;18.60;73.90
42479;DHT22;28110;47.080;9.476;2024-03-29T10:06:06;18.60;75.50
42479;DHT22;28110;47.080;9.476;2024-03-29T10:08:37;18.60;75.80
42479;DHT22;28110;47.080;9.476;2024-03-29T10:11:03;18.60;73.70
42479;DHT22;28110;47.080;9.476;2024-03-29T10:13:28;18.60;73.20
42479;DHT22;28110;47.080;9.476;2024-03-29T10:15:55;18.50;72.70
42479;DHT22;28110;47.080;9.476;2024-03-29T10:18:25;18.50;74.80
42479;DHT22;28110;47.080;9.476;2024-03-29T10:21:05;18.40;74.50
42479;DHT22;28110;47.080;9.476;2024-03-29T10:23:32;18.40;73.80
42479;DHT22;28110;47.080;9.476;2024-03-29T10:25:58;18.40;74.50
42479;DHT22;28110;47.080;9.476;2024-03-29T10:28:27;18.50;75.70
42479;DHT22;28110;47.080;9.476;2024-03-29T10:30:52;18.70;73.90
42479;DHT22;28110;47.080;9.476;2024-03-29T10:33:20;18.90;74.10
42479;DHT22;28110;47.080;9.476;2024-03-29T10:35:46;19.10;74.90
42479;DHT22;28110;47.080;9.476;2024-03-29T10:38:12;19.20;72.50
42479;DHT22;28110;47.080;9.476;2024-03-29T10:40:38;19.40;72.70
42479;DHT22;28110;47.080;9.476;2024-03-29T10:43:08;19.50;72.80
42479;DHT22;28110;47.080;9.476;2024-03-29T10:45:38;19.60;72.00
42479;DHT22;28110;47.080;9.476;2024-03-29T10:48:04;19.70;72.50
42479;DHT22;28110;47.080;9.476;2024-03-29T10:50:35;19.90;73.90
42479;DHT22;28110;47.080;9.476;2024-03-29T10:53:02;20.00;71.40
42479;DHT22;28110;47.080;9.476;2024-03-29T10:55:33;20.10;72.00
42479;DHT22;28110;47.080;9.476;2024-03-29T10:58:00;20.20;72.00
42479;DHT22;28110;47.080;9.476;2024-03-29T11:00:29;20.20;70.80
42479;DHT22;28110;47.080;9.476;2024-03-29T11:03:10;20.20;69.40
42479;DHT22;28110;47.080;9.476;2024-03-29T11:05:40;20.30;70.00
42479;DHT22;28110;47.080;9.476;2024-03-29T11:08:07;20.40;68.40
42479;DHT22;28110;47.080;9.476;2024-03-29T11:10:40;20.40;70.10
42479;DHT22;28110;47.080;9.476;2024-03-29T11:13:29;20.40;69.20
42479;DHT22;28110;47.080;9.476;2024-03-29T11:15:59;20.40;68.90
42479;DHT22;28110;47.080;9.476;2024-03-29T11:18:28;20.40;68.70
42479;DHT22;28110;47.080;9.476;2024-03-29T11:20:55;20.50;68.90
42479;DHT22;28110;47.080;9.476;2024-03-29T11:23:22;20.50;68.30
42479;DHT22;28110;47.080;9.476;2024-03-29T11:25:50;20.60;66.40
42479;DHT22;28110;47.080;9.476;2024-03-29T11:28:23;20.70;68.80
42479;DHT22;28110;47.080;9.476;2024-03-29T11:30:50;20.70;67.50
42479;DHT22;28110;47.080;9.476;2024-03-29T11:33:35;20.80;68.30
42479;DHT22;28110;47.080;9.476;2024-03-29T11:38:35;20.90;66.10
42479;DHT22;28110;47.080;9.476;2024-03-29T11:41:05;21.00;67.50
42479;DHT22;28110;47.080;9.476;2024-03-29T11:43:32;21.00;65.10
42479;DHT22;28110;47.080;9.476;2024-03-29T11:46:02;21.10;65.40
42479;DHT22;28110;47.080;9.476;2024-03-29T11:48:29;21.10;65.40
42479;DHT22;28110;47.080;9.476;2024-03-29T11:50:56;21.10;65.00
42479;DHT22;28110;47.080;9.476;2024-03-29T11:53:22;21.20;66.40
42479;DHT22;28110;47.080;9.476;2024-03-29T11:55:47;21.20;64.20
42479;DHT22;28110;47.080;9.476;2024-03-29T11:58:26;21.20;64.30
42479;DHT22;28110;47.080;9.476;2024-03-29T12:00:52;21.20;64.30
42479;DHT22;28110;47.080;9.476;2024-03-29T12:03:19;21.00;64.00
42479;DHT22;28110;47.080;9.476;2024-03-29T12:05:48;20.90;65.10
42479;DHT22;28110;47.080;9.476;2024-03-29T12:08:15;20.70;63.20
42479;DHT22;28110;47.080;9.476;2024-03-29T12:10:40;20.60;63.20
42479;DHT22;28110;47.080;9.476;2024-03-29T12:13:07;20.50;65.00
42479;DHT22;28110;47.080;9.476;2024-03-29T12:15:33;20.40;62.90
42479;DHT22;28110;47.080;9.476;2024-03-29T12:18:00;20.40;63.40
42479;DHT22;28110;47.080;9.476;2024-03-29T12:20:29;20.30;63.20
42479;DHT22;28110;47.080;9.476;2024-03-29T12:22:56;20.30;63.20
42479;DHT22;28110;47.080;9.476;2024-03-29T12:25:23;20.30;62.30
42479;DHT22;28110;47.080;9.476;2024-03-29T12:27:49;20.30;64.80
42479;DHT22;28110;47.080;9.476;2024-03-29T12:30:14;20.30;64.00
42479;DHT22;28110;47.080;9.476;2024-03-29T12:32:41;20.20;64.10
42479;DHT22;28110;47.080;9.476;2024-03-29T12:37:36;20.30;63.60
42479;DHT22;28110;47.080;9.476;2024-03-29T12:40:02;20.30;62.60
42479;DHT22;28110;47.080;9.476;2024-03-29T12:42:39;20.20;62.80
42479;DHT22;28110;47.080;9.476;2024-03-29T12:45:05;20.10;63.00
42479;DHT22;28110;47.080;9.476;2024-03-29T12:47:33;20.10;65.30
42479;DHT22;28110;47.080;9.476;2024-03-29T12:50:02;20.10;65.60
42479;DHT22;28110;47.080;9.476;2024-03-29T12:52:39;20.00;63.30
42479;DHT22;28110;47.080;9.476;2024-03-29T12:55:06;20.00;64.00
42479;DHT22;28110;47.080;9.476;2024-03-29T12:57:42;20.00;64.50
42479;DHT22;28110;47.080;9.476;2024-03-29T13:00:10;19.90;62.70
42479;DHT22;28110;47.080;9.476;2024-03-29T13:02:36;20.00;62.40
42479;DHT22;28110;47.080;9.476;2024-03-29T13:05:05;20.00;64.10
42479;DHT22;28110;47.080;9.476;2024-03-29T13:07:31;19.90;62.60
42479;DHT22;28110;47.080;9.476;2024-03-29T13:09:57;19.90;62.30
42479;DHT22;28110;47.080;9.476;2024-03-29T13:12:29;19.90;63.40
42479;DHT22;28110;47.080;9.476;2024-03-29T13:14:55;20.00;61.60
42479;DHT22;28110;47.080;9.476;2024-03-29T13:17:21;20.00;62.10
42479;DHT22;28110;47.080;9.476;2024-03-29T13:19:46;20.00;61.40
42479;DHT22;28110;47.080;9.476;2024-03-29T13:22:12;20.10;61.90
42479;DHT22;28110;47.080;9.476;2024-03-29T13:24:38;20.10;61.30
42479;DHT22;28110;47.080;9.476;2024-03-29T13:27:03;20.00;61.60
42479;DHT22;28110;47.080;9.476;2024-03-29T13:29:30;20.10;60.80
42479;DHT22;28110;47.080;9.476;2024-03-29T13:31:56;20.10;59.80
42479;DHT22;28110;47.080;9.476;2024-03-29T13:34:22;20.00;59.60
42479;DHT22;28110;47.080;9.476;2024-03-29T13:36:48;20.00;60.60
42479;DHT22;28110;47.080;9.476;2024-03-29T13:39:13;19.90;61.60
42479;DHT22;28110;47.080;9.476;2024-03-29T13:41:40;19.90;59.90
42479;DHT22;28110;47.080;9.476;2024-03-29T13:44:06;19.90;60.50
42479;DHT22;28110;47.080;9.476;2024-03-29T13:46:35;19.80;61.10
42479;DHT22;28110;47.080;9.476;2024-03-29T13:49:02;19.70;61.80
42479;DHT22;28110;47.080;9.476;2024-03-29T13:51:29;19.70;60.60
42479;DHT22;28110;47.080;9.476;2024-03-29T13:53:54;19.70;61.10
42479;DHT22;28110;47.080;9.476;2024-03-29T13:56:21;19.70;60.30
42479;DHT22;28110;47.080;9.476;2024-03-29T13:58:46;19.60;61.00
42479;DHT22;28110;47.080;9.476;2024-03-29T14:01:12;19.60;60.00
42479;DHT22;28110;47.080;9.476;2024-03-29T14:03:38;19.70;59.60
42479;DHT22;28110;47.080;9.476;2024-03-29T14:06:04;19.60;60.00
42479;DHT22;28110;47.080;9.476;2024-03-29T14:08:30;19.60;59.60
42479;DHT22;28110;47.080;9.476;2024-03-29T14:10:57;19.50;60.20
42479;DHT22;28110;47.080;9.476;2024-03-29T14:13:22;19.40;60.30
42479;DHT22;28110;47.080;9.476;2024-03-29T14:15:49;19.40;61.60
42479;DHT22;28110;47.080;9.476;2024-03-29T14:18:14;19.40;61.30
42479;DHT22;28110;47.080;9.476;2024-03-29T14:20:40;19.40;61.60
42479;DHT22;28110;47.080;9.476;2024-03-29T14:23:05;19.30;60.60
42479;DHT22;28110;47.080;9.476;2024-03-29T14:25:32;19.30;61.60
42479;DHT22;28110;47.080;9.476;2024-03-29T14:27:58;19.30;60.30
42479;DHT22;28110;47.080;9.476;2024-03-29T14:30:25;19.40;61.10
42479;DHT22;28110;47.080;9.476;2024-03-29T14:32:51;19.30;62.70
42479;DHT22;28110;47.080;9.476;2024-03-29T14:35:17;19.30;61.10
42479;DHT22;28110;47.080;9.476;2024-03-29T14:37:44;19.30;63.20
42479;DHT22;28110;47.080;9.476;2024-03-29T14:40:10;19.20;62.50
42479;DHT22;28110;47.080;9.476;2024-03-29T14:42:41;19.20;62.70
42479;DHT22;28110;47.080;9.476;2024-03-29T14:45:07;19.20;63.30
42479;DHT22;28110;47.080;9.476;2024-03-29T14:47:33;19.10;62.60
42479;DHT22;28110;47.080;9.476;2024-03-29T14:50:00;19.10;62.50
42479;DHT22;28110;47.080;9.476;2024-03-29T14:52:26;19.10;62.60
42479;DHT22;28110;47.080;9.476;2024-03-29T14:54:51;19.10;62.20
42479;DHT22;28110;47.080;9.476;2024-03-29T14:57:17;19.10;61.60
42479;DHT22;28110;47.080;9.476;2024-03-29T14:59:50;19.10;61.90
42479;DHT22;28110;47.080;9.476;2024-03-29T15:02:15;19.20;62.40
42479;DHT22;28110;47.080;9.476;2024-03-29T15:04:41;19.20;61.60
42479;DHT22;28110;47.080;9.476;2024-03-29T15:07:07;19.30;62.60
42479;DHT22;28110;47.080;9.476;2024-03-29T15:09:33;19.30;62.70
42479;DHT22;28110;47.080;9.476;2024-03-29T15:12:00;19.30;61.50
42479;DHT22;28110;47.080;9.476;2024-03-29T15:14:27;19.40;61.60
42479;DHT22;28110;47.080;9.476;2024-03-29T15:16:53;19.40;60.90
42479;DHT22;28110;47.080;9.476;2024-03-29T15:19:18;19.40;61.20
42479;DHT22;28110;47.080;9.476;2024-03-29T15:21:44;19.40;60.70
42479;DHT22;28110;47.080;9.476;2024-03-29T15:24:09;19.30;60.30
42479;DHT22;28110;47.080;9.476;2024-03-29T15:26:35;19.30;61.20
42479;DHT22;28110;47.080;9.476;2024-03-29T15:29:03;19.30;61.60
42479;DHT22;28110;47.080;9.476;2024-03-29T15:31:34;19.30;61.70
42479;DHT22;28110;47.080;9.476;2024-03-29T15:34:00;19.30;61.40